Grass Valley, CA

5:30 PM PDT on October 18, 2019 (GMT -0700)
Grass Valley

Weather History for KGOO - September, 2019

Change the Weather History Date:

Sunday, September 15, 2019

  Actual Average (KAUN) Record (KAUN)
Temperature  
Mean Temperature 70 °F -  
Max Temperature 82 °F 84 °F 103 °F (1953)
Min Temperature 59 °F 57 °F 47 °F (1959)
Cooling Degree Days 6    
Growing Degree Days 20 (Base 50)    
Moisture  
Dew Point 32 °F    
Average Humidity 24    
Maximum Humidity 48    
Minimum Humidity 12    
Precipitation  
Precipitation 0.00 in - - ()
Sea Level Pressure  
Sea Level Pressure 29.93 in    
Wind  
Wind Speed 6 mph ()    
Max Wind Speed 10 mph    
Max Gust Speed 23 mph    
Visibility 10.0 miles    
Events      
Averages and records for this station are not official NWS values.
T = Trace of Precipitation, MM = Missing Value Source: Averaged Metar Reports

Daily Weather History Graph

Daily Weather History Graph

Search for Another Location

Airport or City:

Astronomy

Sep. 15, 2019 Rise Set
Actual Time 6:45 AM PDT 7:12 PM PDT
Civil Twilight 6:18 AM PDT 7:39 PM PDT
Nautical Twilight 5:46 AM PDT 8:10 PM PDT
Astronomical Twilight 5:14 AM PDT 8:43 PM PDT
Moon 8:23 PM PDT (9/15) 8:00 AM PDT (9/15)
Length of Visible Light 13h 21m
Length of Day
12h 27m
Full, 98% of the Moon is Illuminated
Sep 15
Full
Sep 21
Last Quarter
Sep 28
New
Oct 5
First Quarter
Oct 13
Full

Hourly Weather History & Observations

Time (PDT) Temp. Dew Point Humidity Pressure Visibility Wind Dir Wind Speed Gust Speed Precip Events Conditions
12:15 AM 73.4 °F 37.4 °F 27% 29.99 in 10.0 mi Variable 6.9 mph - N/A   Clear
12:35 AM 71.6 °F 37.4 °F 29% 29.99 in 10.0 mi ESE 5.8 mph - N/A   Clear
12:55 AM 71.6 °F 37.4 °F 29% 29.99 in 10.0 mi ESE 5.8 mph - N/A   Clear
1:15 AM 71.6 °F 35.6 °F 27% 30.00 in 10.0 mi ESE 6.9 mph - N/A   Clear
1:35 AM 71.6 °F 35.6 °F 27% 29.99 in 10.0 mi ESE 6.9 mph - N/A   Clear
1:55 AM 71.6 °F 35.6 °F 27% 29.99 in 10.0 mi ESE 6.9 mph - N/A   Clear
2:15 AM 71.6 °F 35.6 °F 27% 29.99 in 10.0 mi SE 5.8 mph - N/A   Clear
2:35 AM 69.8 °F 35.6 °F 28% 29.99 in 10.0 mi SE 4.6 mph - N/A   Clear
2:55 AM 69.8 °F 35.6 °F 28% 29.98 in 10.0 mi SE 4.6 mph - N/A   Clear
3:15 AM 69.8 °F 35.6 °F 28% 29.97 in 10.0 mi SE 4.6 mph - N/A   Clear
3:35 AM 69.8 °F 35.6 °F 28% 29.97 in 10.0 mi SE 4.6 mph - N/A   Clear
3:55 AM 69.8 °F 35.6 °F 28% 29.97 in 10.0 mi ESE 3.5 mph - N/A   Clear
4:15 AM 68.0 °F 35.6 °F 30% 29.96 in 10.0 mi SE 4.6 mph - N/A   Clear
4:35 AM 68.0 °F 35.6 °F 30% 29.96 in 10.0 mi SE 4.6 mph - N/A   Clear
4:55 AM 68.0 °F 35.6 °F 30% 29.96 in 10.0 mi SE 4.6 mph - N/A   Clear
5:15 AM 68.0 °F 35.6 °F 30% 29.95 in 10.0 mi SE 4.6 mph - N/A   Clear
5:35 AM 68.0 °F 35.6 °F 30% 29.95 in 10.0 mi ESE 6.9 mph - N/A   Clear
5:55 AM 68.0 °F 35.6 °F 30% 29.95 in 10.0 mi ESE 4.6 mph - N/A   Clear
6:15 AM 69.8 °F 33.8 °F 27% 29.94 in 10.0 mi ESE 6.9 mph - N/A   Clear
6:35 AM 69.8 °F 33.8 °F 27% 29.94 in 10.0 mi ESE 9.2 mph - N/A   Clear
6:55 AM 69.8 °F 32.0 °F 25% 29.94 in 10.0 mi ESE 5.8 mph - N/A   Clear
7:15 AM 69.8 °F 32.0 °F 25% 29.94 in 10.0 mi ESE 6.9 mph - N/A   Clear
7:35 AM 71.6 °F 32.0 °F 23% 29.95 in 10.0 mi Variable 5.8 mph - N/A   Clear
7:55 AM 71.6 °F 32.0 °F 23% 29.95 in 10.0 mi Variable 5.8 mph - N/A   Clear
8:10 AM 69.8 °F 33.8 °F 27% 29.95 in 10.0 mi SE 5.8 mph - N/A   Clear
8:35 AM 71.6 °F 33.8 °F 25% 29.95 in 10.0 mi SE 6.9 mph - N/A   Clear
8:50 AM 71.6 °F 35.6 °F 27% 29.95 in 10.0 mi SE 6.9 mph - N/A   Clear
9:15 AM 73.4 °F 35.6 °F 25% 29.96 in 10.0 mi Variable 5.8 mph 15.0 mph N/A   Clear
9:35 AM 75.2 °F 35.6 °F 24% 29.96 in 10.0 mi SE 8.1 mph - N/A   Clear
9:55 AM 75.2 °F 35.6 °F 24% 29.96 in 10.0 mi SE 9.2 mph 15.0 mph N/A   Clear
10:15 AM 77.0 °F 33.8 °F 21% 29.96 in 10.0 mi Variable 6.9 mph - N/A   Clear
10:35 AM 77.0 °F 35.6 °F 22% 29.97 in 10.0 mi Variable 4.6 mph 12.7 mph N/A   Clear
10:55 AM 78.8 °F 32.0 °F 18% 29.96 in 10.0 mi South 9.2 mph 17.3 mph N/A   Clear
11:15 AM 80.6 °F 32.0 °F 17% 29.96 in 10.0 mi Variable 5.8 mph 13.8 mph N/A   Clear
11:30 AM 78.8 °F 30.2 °F 17% 29.96 in 10.0 mi South 9.2 mph 16.1 mph N/A   Clear
11:55 AM 80.6 °F 28.4 °F 15% 29.95 in 10.0 mi South 10.4 mph 16.1 mph N/A   Clear
12:15 PM 80.6 °F 28.4 °F 15% 29.95 in 10.0 mi Variable 6.9 mph 16.1 mph N/A   Clear
12:35 PM 80.6 °F 26.6 °F 14% 29.94 in 10.0 mi South 8.1 mph 17.3 mph N/A   Clear
12:55 PM 80.6 °F 26.6 °F 14% 29.94 in 10.0 mi South 8.1 mph 15.0 mph N/A   Clear
1:15 PM 82.4 °F 24.8 °F 12% 29.94 in 10.0 mi Variable 5.8 mph 12.7 mph N/A   Clear
1:35 PM 82.4 °F 26.6 °F 13% 29.93 in 10.0 mi SSW 8.1 mph 16.1 mph N/A   Clear
1:55 PM 80.6 °F 24.8 °F 13% 29.93 in 10.0 mi Calm Calm 13.8 mph N/A   Clear
2:15 PM 80.6 °F 23.0 °F 12% 29.93 in 10.0 mi Variable 5.8 mph 23.0 mph N/A   Clear
2:35 PM 80.6 °F 26.6 °F 14% 29.92 in 10.0 mi Variable 6.9 mph 18.4 mph N/A   Clear
2:55 PM 80.6 °F 28.4 °F 15% 29.91 in 10.0 mi Variable 6.9 mph 13.8 mph N/A   Clear
3:15 PM 80.6 °F 28.4 °F 15% 29.91 in 10.0 mi SSW 8.1 mph 16.1 mph N/A   Clear
3:35 PM 80.6 °F 23.0 °F 12% 29.90 in 10.0 mi Variable 6.9 mph 17.3 mph N/A   Clear
3:55 PM 78.8 °F 21.2 °F 12% 29.89 in 10.0 mi SSW 10.4 mph 17.3 mph N/A   Clear
4:15 PM 80.6 °F 23.0 °F 12% 29.89 in 10.0 mi Variable 4.6 mph - N/A   Clear
4:35 PM 78.8 °F 24.8 °F 14% 29.88 in 10.0 mi Variable 5.8 mph 13.8 mph N/A   Clear
4:55 PM 78.8 °F 26.6 °F 15% 29.88 in 10.0 mi South 10.4 mph 21.9 mph N/A   Clear
5:35 PM 77.0 °F 32.0 °F 19% 29.88 in 10.0 mi Calm Calm 11.5 mph N/A   Clear
5:55 PM 75.2 °F 32.0 °F 21% 29.88 in 10.0 mi Variable 4.6 mph 13.8 mph N/A   Clear
6:15 PM 73.4 °F 30.2 °F 20% 29.88 in 10.0 mi Variable 5.8 mph 13.8 mph N/A   Clear
6:35 PM 71.6 °F 26.6 °F 19% 29.88 in 10.0 mi Calm Calm 16.1 mph N/A   Clear
6:55 PM 69.8 °F 28.4 °F 21% 29.88 in 10.0 mi Calm Calm 11.5 mph N/A   Clear
7:15 PM 68.0 °F 30.2 °F 24% 29.88 in 10.0 mi Variable 4.6 mph 11.5 mph N/A   Clear
7:35 PM 66.2 °F 28.4 °F 24% 29.88 in 10.0 mi Variable 4.6 mph 11.5 mph N/A   Clear
7:55 PM 66.2 °F 28.4 °F 24% 29.89 in 10.0 mi SSE 6.9 mph 15.0 mph N/A   Clear
8:15 PM 64.4 °F 26.6 °F 24% 29.89 in 10.0 mi Variable 5.8 mph - N/A   Clear
8:35 PM 64.4 °F 24.8 °F 22% 29.90 in 10.0 mi Calm Calm - N/A   Clear
8:55 PM 62.6 °F 26.6 °F 26% 29.90 in 10.0 mi SE 5.8 mph - N/A   Clear
9:15 PM 62.6 °F 28.4 °F 27% 29.90 in 10.0 mi SE 5.8 mph - N/A   Clear
9:35 PM 60.8 °F 28.4 °F 29% 29.90 in 10.0 mi Calm Calm - N/A   Clear
9:55 PM 60.8 °F 30.2 °F 31% 29.90 in 10.0 mi SE 5.8 mph - N/A   Clear
10:15 PM 59.0 °F 32.0 °F 36% 29.90 in 10.0 mi SE 5.8 mph - N/A   Clear
10:35 PM 59.0 °F 32.0 °F 36% 29.91 in 10.0 mi SSE 5.8 mph - N/A   Clear
10:55 PM 59.0 °F 37.4 °F 45% 29.91 in 10.0 mi Variable 4.6 mph - N/A   Clear
11:10 PM 59.0 °F 37.4 °F 45% 29.90 in 10.0 mi Variable 6.9 mph 15.0 mph N/A   Clear
11:35 PM 59.0 °F 39.2 °F 48% 29.89 in 10.0 mi SE 6.9 mph 15.0 mph N/A   Clear
11:55 PM 59.0 °F 39.2 °F 48% 29.90 in 10.0 mi SE 5.8 mph - N/A   Clear